Tropical Cyclones
[Index]
Main Index Home Page Stock Weather Photos Extreme Storms Discussion Storm News and Storm Chasing Reports Tropical Cyclones / Hurricanes / Typhoons Weather Data and Links Wild Fires / Bushfires Weather Observation Techniques Weather Picture Catalogue Tornado Pictures and Reports Stock Video Footage and DVDs for sale
Season 2007-2008 Tropical Cyclone FUNA Track Map
Season 2007-2008 Summaries (Operational Data): [AU] [SIO] [SPAC] [SH]
<<- Previous TC | 2007-2008 Season | Next TC ->>

click for intensity scale information  Lat/long Grid: Show Hide

 Date Labels: Show Hide

Operational Tropical Cyclone Data : JTWC Advisories

Name: FUNA
Number: 0812

15 Jan 2008 21:00 UTC to 20 Jan 2008 18:00 UTC

    date/time    lat    long     hPa   cat  kts
2008-01-15 21   15.4   163.0     998         30          
2008-01-16 00   15.4   163.4     998         30          
2008-01-16 06   14.4   164.8     990    1    40          
2008-01-16 12   14.8   165.7     987    1    45          
2008-01-16 18   15.1   166.5     978    2    50          
2008-01-17 00   15.0   167.9     970    2    55          
2008-01-17 06   15.3   169.5     970    2    55          
2008-01-17 12   15.7   170.3     970    2    60          
2008-01-17 18   16.6   170.9     968    2    60          
2008-01-18 00   17.4   172.2     960    3    70          
2008-01-18 06   18.4   172.9     960    3    75          
2008-01-18 12   18.9   173.4     955    3    80          
2008-01-18 18   20.0   174.2     945    3    85          
2008-01-19 00   20.9   174.8     930    4    95          
2008-01-19 06   22.1   175.1     930    4    95          
2008-01-19 12   23.9   175.4     930    4    95          
2008-01-19 18   25.8   175.2     945    3    85          
2008-01-20 00   27.4   173.6     950    3    80          
2008-01-20 06   29.0   171.5     965    3    70          
2008-01-20 12   30.0   170.0     970    3    65          
2008-01-20 18   30.0   169.0     975    2    60          
Winds are 10-min average.

Tropical cyclone tracks developed by Michael Bath using operational warnings and advisories and Google Maps.


[Australian Severe Weather index] [Copyright Notice] [Email Contacts] [Search This Site] [Privacy Policy]
Document: tropical_cyclone_funa.htm Updated: 2 May 2017